Huvudsida
METAR-TAF:

METAR-TAF

Flygplatser :

Gonābād, Iran

latitud: 34-22-51N, longitud: 58-38-23E, höjd: 1100 m

Aktuellt väderrapport

Denna rapport gjordes för 1 timme och 0 minuter sedan, klockan 12:00 UTC
Vind 10 kt från ost
Temperatur 19°C
Fuktighet 6%
Tryck 1019 hPa

METAR: OIMD 121200Z AUTO 10010KT //// // ////// 19/M20 Q1019

Tid: 16:30 (13:00 UTC)


TAF: saknas

Aktuella väderrapporter och prognoser från 4000 flygplatser (METAR- och TAF-rapporter).

De tillgängliga stationerna syns som gula och röda prickar på kartan.

För musen över prickarna för att se namnen på stationerna.

Klicka sedan för att få väderrapporter och prognoser.

För att ändra kartan: Klicka på de gröna knapparna med ett svart kors på för att zooma in; den gröna knappen med ett streck på för att zooma ut; eller på de gröna pilarna för angränsande kartor.


METAR-TAF: